sensor_id;sensor_type;location;lat;lon;timestamp;P1;P2;P0
44933;PMS3003;30667;43.614;1.442;2023-03-11T00:00:04;5.75;5.25;1.50
44933;PMS3003;30667;43.614;1.442;2023-03-11T00:02:37;6.00;4.20;1.00
44933;PMS3003;30667;43.614;1.442;2023-03-11T00:05:06;5.40;3.80;1.00
44933;PMS3003;30667;43.614;1.442;2023-03-11T00:07:32;6.20;4.00;1.00
44933;PMS3003;30667;43.614;1.442;2023-03-11T00:09:58;6.00;5.25;1.25
44933;PMS3003;30667;43.614;1.442;2023-03-11T00:12:23;5.25;4.00;1.25
44933;PMS3003;30667;43.614;1.442;2023-03-11T00:14:49;5.50;4.00;1.00
44933;PMS3003;30667;43.614;1.442;2023-03-11T00:17:14;6.00;5.25;1.00
44933;PMS3003;30667;43.614;1.442;2023-03-11T00:19:40;3.25;3.25;1.00
44933;PMS3003;30667;43.614;1.442;2023-03-11T00:22:05;6.00;5.00;2.00
44933;PMS3003;30667;43.614;1.442;2023-03-11T00:24:30;6.50;5.25;1.00
44933;PMS3003;30667;43.614;1.442;2023-03-11T00:26:56;3.75;3.75;1.00
44933;PMS3003;30667;43.614;1.442;2023-03-11T00:29:21;5.50;3.00;1.00
44933;PMS3003;30667;43.614;1.442;2023-03-11T00:31:46;7.25;6.25;2.00
44933;PMS3003;30667;43.614;1.442;2023-03-11T00:34:12;6.75;5.00;1.00
44933;PMS3003;30667;43.614;1.442;2023-03-11T00:36:37;5.00;3.50;1.00
44933;PMS3003;30667;43.614;1.442;2023-03-11T00:39:03;6.00;4.00;1.25
44933;PMS3003;30667;43.614;1.442;2023-03-11T00:41:30;6.00;4.00;1.00
44933;PMS3003;30667;43.614;1.442;2023-03-11T00:43:59;7.20;6.00;0.80
44933;PMS3003;30667;43.614;1.442;2023-03-11T00:46:25;5.50;5.50;1.00
44933;PMS3003;30667;43.614;1.442;2023-03-11T00:48:51;4.00;4.00;2.00
44933;PMS3003;30667;43.614;1.442;2023-03-11T00:51:16;7.00;5.60;2.00
44933;PMS3003;30667;43.614;1.442;2023-03-11T00:53:42;6.80;4.00;1.00
44933;PMS3003;30667;43.614;1.442;2023-03-11T00:56:09;5.60;5.20;2.00
44933;PMS3003;30667;43.614;1.442;2023-03-11T00:58:36;7.00;4.80;1.60
44933;PMS3003;30667;43.614;1.442;2023-03-11T01:01:09;4.40;4.40;1.00
44933;PMS3003;30667;43.614;1.442;2023-03-11T01:03:37;5.60;4.80;2.00
44933;PMS3003;30667;43.614;1.442;2023-03-11T01:06:03;6.40;5.60;2.00
44933;PMS3003;30667;43.614;1.442;2023-03-11T01:08:29;5.60;4.80;1.00
44933;PMS3003;30667;43.614;1.442;2023-03-11T01:10:55;4.80;4.80;1.80
44933;PMS3003;30667;43.614;1.442;2023-03-11T01:13:21;7.00;7.00;2.40
44933;PMS3003;30667;43.614;1.442;2023-03-11T01:15:47;7.25;6.00;1.00
44933;PMS3003;30667;43.614;1.442;2023-03-11T01:18:12;6.00;4.00;1.00
44933;PMS3003;30667;43.614;1.442;2023-03-11T01:20:38;4.50;4.00;1.00
44933;PMS3003;30667;43.614;1.442;2023-03-11T01:23:04;5.75;4.50;0.50
44933;PMS3003;30667;43.614;1.442;2023-03-11T01:25:30;6.00;3.40;1.00
44933;PMS3003;30667;43.614;1.442;2023-03-11T01:27:55;5.75;4.00;1.00
44933;PMS3003;30667;43.614;1.442;2023-03-11T01:30:22;5.00;5.00;2.50
44933;PMS3003;30667;43.614;1.442;2023-03-11T01:32:49;4.40;4.00;1.00
44933;PMS3003;30667;43.614;1.442;2023-03-11T01:35:16;6.80;6.00;2.00
44933;PMS3003;30667;43.614;1.442;2023-03-11T01:37:43;4.00;4.00;1.60
44933;PMS3003;30667;43.614;1.442;2023-03-11T01:40:12;6.25;5.25;2.00
44933;PMS3003;30667;43.614;1.442;2023-03-11T01:42:42;4.80;3.00;1.60
44933;PMS3003;30667;43.614;1.442;2023-03-11T01:47:54;3.20;3.00;1.00
44933;PMS3003;30667;43.614;1.442;2023-03-11T01:50:20;4.75;4.25;1.00
44933;PMS3003;30667;43.614;1.442;2023-03-11T01:52:46;5.00;3.00;0.00
44933;PMS3003;30667;43.614;1.442;2023-03-11T01:55:12;3.75;3.00;1.00
44933;PMS3003;30667;43.614;1.442;2023-03-11T01:57:41;3.60;3.40;0.80
44933;PMS3003;30667;43.614;1.442;2023-03-11T02:00:10;4.20;4.00;1.00
44933;PMS3003;30667;43.614;1.442;2023-03-11T02:02:40;3.00;3.00;0.00
44933;PMS3003;30667;43.614;1.442;2023-03-11T02:05:09;3.40;2.60;1.00
44933;PMS3003;30667;43.614;1.442;2023-03-11T02:07:36;6.40;3.00;1.00
44933;PMS3003;30667;43.614;1.442;2023-03-11T02:10:04;4.60;3.60;1.00
44933;PMS3003;30667;43.614;1.442;2023-03-11T02:12:32;4.80;3.40;0.60
44933;PMS3003;30667;43.614;1.442;2023-03-11T02:14:59;3.20;3.00;1.00
44933;PMS3003;30667;43.614;1.442;2023-03-11T02:17:26;3.60;3.00;1.00
44933;PMS3003;30667;43.614;1.442;2023-03-11T02:22:16;2.50;2.25;1.00
44933;PMS3003;30667;43.614;1.442;2023-03-11T02:24:44;5.25;3.75;1.25
44933;PMS3003;30667;43.614;1.442;2023-03-11T02:27:17;3.80;3.00;1.00
44933;PMS3003;30667;43.614;1.442;2023-03-11T02:29:46;3.20;3.00;0.80
44933;PMS3003;30667;43.614;1.442;2023-03-11T02:32:15;4.40;3.00;0.40
44933;PMS3003;30667;43.614;1.442;2023-03-11T02:34:42;2.00;1.80;0.00
44933;PMS3003;30667;43.614;1.442;2023-03-11T02:37:12;3.00;3.00;1.00
44933;PMS3003;30667;43.614;1.442;2023-03-11T02:39:40;3.40;1.80;0.40
44933;PMS3003;30667;43.614;1.442;2023-03-11T02:42:18;6.20;3.00;0.20
44933;PMS3003;30667;43.614;1.442;2023-03-11T02:44:48;3.00;3.00;0.40
44933;PMS3003;30667;43.614;1.442;2023-03-11T02:47:27;4.00;2.20;0.00
44933;PMS3003;30667;43.614;1.442;2023-03-11T02:49:53;3.00;2.80;0.00
44933;PMS3003;30667;43.614;1.442;2023-03-11T02:52:20;3.00;2.00;0.00
44933;PMS3003;30667;43.614;1.442;2023-03-11T02:54:46;3.60;3.00;1.00
44933;PMS3003;30667;43.614;1.442;2023-03-11T02:57:11;3.75;3.25;1.00
44933;PMS3003;30667;43.614;1.442;2023-03-11T02:59:37;3.00;3.00;0.00
44933;PMS3003;30667;43.614;1.442;2023-03-11T03:02:02;8.00;3.00;1.00
44933;PMS3003;30667;43.614;1.442;2023-03-11T03:04:28;3.75;3.00;1.00
44933;PMS3003;30667;43.614;1.442;2023-03-11T03:06:53;3.00;2.25;0.75
44933;PMS3003;30667;43.614;1.442;2023-03-11T03:09:18;3.50;2.75;0.00
44933;PMS3003;30667;43.614;1.442;2023-03-11T03:11:44;4.00;3.00;1.00
44933;PMS3003;30667;43.614;1.442;2023-03-11T03:14:09;5.75;2.00;0.00
44933;PMS3003;30667;43.614;1.442;2023-03-11T03:16:35;2.75;2.75;0.75
44933;PMS3003;30667;43.614;1.442;2023-03-11T03:19:00;3.25;2.25;0.00
44933;PMS3003;30667;43.614;1.442;2023-03-11T03:21:25;4.00;3.00;0.50
44933;PMS3003;30667;43.614;1.442;2023-03-11T03:23:51;2.25;2.25;0.00
44933;PMS3003;30667;43.614;1.442;2023-03-11T03:26:16;4.00;3.00;0.25
44933;PMS3003;30667;43.614;1.442;2023-03-11T03:28:42;3.00;3.00;1.00
44933;PMS3003;30667;43.614;1.442;2023-03-11T03:31:08;2.00;2.00;0.00
44933;PMS3003;30667;43.614;1.442;2023-03-11T03:33:34;2.40;2.20;1.00
44933;PMS3003;30667;43.614;1.442;2023-03-11T03:35:59;3.00;3.00;0.00
44933;PMS3003;30667;43.614;1.442;2023-03-11T03:38:25;3.00;2.75;0.00
44933;PMS3003;30667;43.614;1.442;2023-03-11T03:40:50;2.00;2.00;0.00
44933;PMS3003;30667;43.614;1.442;2023-03-11T03:43:15;2.00;2.00;0.00
44933;PMS3003;30667;43.614;1.442;2023-03-11T03:45:41;2.75;2.75;0.00
44933;PMS3003;30667;43.614;1.442;2023-03-11T03:48:06;2.00;1.75;0.00
44933;PMS3003;30667;43.614;1.442;2023-03-11T03:50:32;4.00;3.00;0.00
44933;PMS3003;30667;43.614;1.442;2023-03-11T03:52:57;3.75;3.75;1.00
44933;PMS3003;30667;43.614;1.442;2023-03-11T03:55:23;1.25;1.25;0.00
44933;PMS3003;30667;43.614;1.442;2023-03-11T03:57:48;2.00;2.00;0.00
44933;PMS3003;30667;43.614;1.442;2023-03-11T04:00:14;3.00;2.75;0.00
44933;PMS3003;30667;43.614;1.442;2023-03-11T04:02:40;3.80;3.20;1.00
44933;PMS3003;30667;43.614;1.442;2023-03-11T04:05:05;2.75;2.00;0.00
44933;PMS3003;30667;43.614;1.442;2023-03-11T04:07:32;3.00;2.80;0.20
44933;PMS3003;30667;43.614;1.442;2023-03-11T04:09:59;2.00;2.00;0.00
44933;PMS3003;30667;43.614;1.442;2023-03-11T04:12:25;2.25;2.00;0.00
44933;PMS3003;30667;43.614;1.442;2023-03-11T04:14:50;3.00;2.25;0.00
44933;PMS3003;30667;43.614;1.442;2023-03-11T04:17:16;3.00;3.00;0.00
44933;PMS3003;30667;43.614;1.442;2023-03-11T04:19:41;6.50;3.00;0.00
44933;PMS3003;30667;43.614;1.442;2023-03-11T04:22:07;3.00;3.00;0.00
44933;PMS3003;30667;43.614;1.442;2023-03-11T04:24:33;3.00;2.00;0.00
44933;PMS3003;30667;43.614;1.442;2023-03-11T04:26:58;3.25;2.00;0.00
44933;PMS3003;30667;43.614;1.442;2023-03-11T04:29:24;3.50;3.00;0.00
44933;PMS3003;30667;43.614;1.442;2023-03-11T04:31:49;5.50;3.50;0.00
44933;PMS3003;30667;43.614;1.442;2023-03-11T04:34:14;2.50;2.00;0.00
44933;PMS3003;30667;43.614;1.442;2023-03-11T04:36:40;3.50;2.00;0.00
44933;PMS3003;30667;43.614;1.442;2023-03-11T04:39:05;2.50;2.00;0.00
44933;PMS3003;30667;43.614;1.442;2023-03-11T04:41:31;2.50;2.50;0.00
44933;PMS3003;30667;43.614;1.442;2023-03-11T04:43:57;3.00;2.00;0.75
44933;PMS3003;30667;43.614;1.442;2023-03-11T04:46:23;3.60;3.00;0.00
44933;PMS3003;30667;43.614;1.442;2023-03-11T04:48:48;2.00;2.00;0.00
44933;PMS3003;30667;43.614;1.442;2023-03-11T04:51:14;2.75;2.00;0.00
44933;PMS3003;30667;43.614;1.442;2023-03-11T04:53:39;3.00;3.00;0.00
44933;PMS3003;30667;43.614;1.442;2023-03-11T04:56:05;7.00;3.00;1.00
44933;PMS3003;30667;43.614;1.442;2023-03-11T04:58:30;3.25;2.50;0.00
44933;PMS3003;30667;43.614;1.442;2023-03-11T05:00:56;2.00;2.00;0.00
44933;PMS3003;30667;43.614;1.442;2023-03-11T05:03:21;2.75;2.50;0.25
44933;PMS3003;30667;43.614;1.442;2023-03-11T05:05:47;2.50;2.50;0.00
44933;PMS3003;30667;43.614;1.442;2023-03-11T05:08:12;2.00;2.00;0.00
44933;PMS3003;30667;43.614;1.442;2023-03-11T05:10:38;2.50;2.00;0.00
44933;PMS3003;30667;43.614;1.442;2023-03-11T05:13:05;2.00;1.60;0.00
44933;PMS3003;30667;43.614;1.442;2023-03-11T05:15:31;3.00;3.00;0.75
44933;PMS3003;30667;43.614;1.442;2023-03-11T05:17:56;2.75;2.00;0.00
44933;PMS3003;30667;43.614;1.442;2023-03-11T05:20:22;3.40;2.20;0.00
44933;PMS3003;30667;43.614;1.442;2023-03-11T05:22:48;2.00;2.00;0.00
44933;PMS3003;30667;43.614;1.442;2023-03-11T05:25:13;3.00;2.25;0.00
44933;PMS3003;30667;43.614;1.442;2023-03-11T05:27:38;3.00;2.75;0.00
44933;PMS3003;30667;43.614;1.442;2023-03-11T05:30:04;2.75;2.00;0.00
44933;PMS3003;30667;43.614;1.442;2023-03-11T05:32:30;3.00;3.00;0.40
44933;PMS3003;30667;43.614;1.442;2023-03-11T05:34:56;4.00;3.25;0.25
44933;PMS3003;30667;43.614;1.442;2023-03-11T05:37:21;3.00;2.00;0.00
44933;PMS3003;30667;43.614;1.442;2023-03-11T05:39:46;3.25;2.25;0.00
44933;PMS3003;30667;43.614;1.442;2023-03-11T05:42:12;2.50;2.00;0.00
44933;PMS3003;30667;43.614;1.442;2023-03-11T05:44:37;2.75;2.00;0.00
44933;PMS3003;30667;43.614;1.442;2023-03-11T05:47:03;2.00;2.00;0.00
44933;PMS3003;30667;43.614;1.442;2023-03-11T05:49:28;4.00;3.00;0.00
44933;PMS3003;30667;43.614;1.442;2023-03-11T05:51:54;2.25;2.00;0.00
44933;PMS3003;30667;43.614;1.442;2023-03-11T05:54:19;2.00;2.00;0.00
44933;PMS3003;30667;43.614;1.442;2023-03-11T05:56:45;3.00;2.50;0.00
44933;PMS3003;30667;43.614;1.442;2023-03-11T05:59:12;2.40;2.40;0.80
44933;PMS3003;30667;43.614;1.442;2023-03-11T06:01:39;4.40;3.00;0.20
44933;PMS3003;30667;43.614;1.442;2023-03-11T06:04:05;4.80;3.00;0.00
44933;PMS3003;30667;43.614;1.442;2023-03-11T06:06:30;3.20;3.00;0.20
44933;PMS3003;30667;43.614;1.442;2023-03-11T06:08:56;2.60;2.60;0.00
44933;PMS3003;30667;43.614;1.442;2023-03-11T06:11:22;4.00;3.00;0.75
44933;PMS3003;30667;43.614;1.442;2023-03-11T06:13:51;3.00;2.00;0.00
44933;PMS3003;30667;43.614;1.442;2023-03-11T06:16:20;3.00;3.00;0.00
44933;PMS3003;30667;43.614;1.442;2023-03-11T06:18:46;3.00;2.60;0.00
44933;PMS3003;30667;43.614;1.442;2023-03-11T06:21:16;3.00;3.00;0.25
44933;PMS3003;30667;43.614;1.442;2023-03-11T06:23:46;2.60;2.60;0.00
44933;PMS3003;30667;43.614;1.442;2023-03-11T06:26:13;3.20;3.20;1.00
44933;PMS3003;30667;43.614;1.442;2023-03-11T06:28:41;2.00;2.00;0.20
44933;PMS3003;30667;43.614;1.442;2023-03-11T06:31:08;3.60;3.40;0.60
44933;PMS3003;30667;43.614;1.442;2023-03-11T06:33:38;3.00;2.20;0.00
44933;PMS3003;30667;43.614;1.442;2023-03-11T06:36:04;4.00;2.75;0.00
44933;PMS3003;30667;43.614;1.442;2023-03-11T06:38:30;3.60;2.80;0.40
44933;PMS3003;30667;43.614;1.442;2023-03-11T06:41:02;5.00;3.00;0.60
44933;PMS3003;30667;43.614;1.442;2023-03-11T06:43:29;2.00;2.00;0.00
44933;PMS3003;30667;43.614;1.442;2023-03-11T06:45:55;3.60;3.40;1.00
44933;PMS3003;30667;43.614;1.442;2023-03-11T06:48:21;3.00;2.40;0.00
44933;PMS3003;30667;43.614;1.442;2023-03-11T06:50:56;2.00;2.00;0.00
44933;PMS3003;30667;43.614;1.442;2023-03-11T06:53:23;4.00;2.20;0.00
44933;PMS3003;30667;43.614;1.442;2023-03-11T06:55:59;3.00;2.60;0.00
44933;PMS3003;30667;43.614;1.442;2023-03-11T06:58:28;2.00;2.00;0.00
44933;PMS3003;30667;43.614;1.442;2023-03-11T07:00:54;2.40;2.00;0.00
44933;PMS3003;30667;43.614;1.442;2023-03-11T07:03:19;3.00;2.50;0.00
44933;PMS3003;30667;43.614;1.442;2023-03-11T07:05:45;5.00;4.00;1.00
44933;PMS3003;30667;43.614;1.442;2023-03-11T07:08:14;4.20;2.80;1.00
44933;PMS3003;30667;43.614;1.442;2023-03-11T07:10:40;3.00;2.25;0.00
44933;PMS3003;30667;43.614;1.442;2023-03-11T07:13:05;3.50;2.25;0.00
44933;PMS3003;30667;43.614;1.442;2023-03-11T07:15:31;4.00;3.80;0.00
44933;PMS3003;30667;43.614;1.442;2023-03-11T07:17:57;4.50;3.00;1.00
44933;PMS3003;30667;43.614;1.442;2023-03-11T07:20:42;3.00;3.00;0.40
44933;PMS3003;30667;43.614;1.442;2023-03-11T07:23:07;3.75;3.50;0.00
44933;PMS3003;30667;43.614;1.442;2023-03-11T07:25:33;4.50;3.25;1.00
44933;PMS3003;30667;43.614;1.442;2023-03-11T07:27:58;4.00;4.00;1.00
44933;PMS3003;30667;43.614;1.442;2023-03-11T07:30:24;5.75;4.00;0.75
44933;PMS3003;30667;43.614;1.442;2023-03-11T07:32:49;2.50;2.50;0.00
44933;PMS3003;30667;43.614;1.442;2023-03-11T07:35:14;3.75;3.75;1.00
44933;PMS3003;30667;43.614;1.442;2023-03-11T07:37:40;2.75;2.75;0.00
44933;PMS3003;30667;43.614;1.442;2023-03-11T07:40:05;4.50;3.75;1.00
44933;PMS3003;30667;43.614;1.442;2023-03-11T07:42:32;4.00;3.20;0.00
44933;PMS3003;30667;43.614;1.442;2023-03-11T07:44:58;4.40;4.00;1.00
44933;PMS3003;30667;43.614;1.442;2023-03-11T07:47:24;4.00;3.00;1.00
44933;PMS3003;30667;43.614;1.442;2023-03-11T07:49:49;3.00;3.00;1.00
44933;PMS3003;30667;43.614;1.442;2023-03-11T07:52:14;4.25;4.00;1.00
44933;PMS3003;30667;43.614;1.442;2023-03-11T07:54:40;2.00;2.00;1.00
44933;PMS3003;30667;43.614;1.442;2023-03-11T07:57:05;4.25;3.00;1.00
44933;PMS3003;30667;43.614;1.442;2023-03-11T07:59:32;4.80;3.00;1.00
44933;PMS3003;30667;43.614;1.442;2023-03-11T08:01:57;3.00;3.00;0.75
44933;PMS3003;30667;43.614;1.442;2023-03-11T08:04:23;2.50;2.50;1.00
44933;PMS3003;30667;43.614;1.442;2023-03-11T08:06:48;3.50;3.00;0.50
44933;PMS3003;30667;43.614;1.442;2023-03-11T08:09:14;4.00;4.00;0.00
44933;PMS3003;30667;43.614;1.442;2023-03-11T08:11:39;4.50;3.25;1.00
44933;PMS3003;30667;43.614;1.442;2023-03-11T08:14:05;3.75;2.50;0.50
44933;PMS3003;30667;43.614;1.442;2023-03-11T08:16:31;4.00;3.20;1.00
44933;PMS3003;30667;43.614;1.442;2023-03-11T08:18:56;2.75;2.75;1.00
44933;PMS3003;30667;43.614;1.442;2023-03-11T08:21:23;4.50;4.00;1.00
44933;PMS3003;30667;43.614;1.442;2023-03-11T08:23:51;4.00;3.00;0.60
44933;PMS3003;30667;43.614;1.442;2023-03-11T08:26:20;4.60;4.20;2.00
44933;PMS3003;30667;43.614;1.442;2023-03-11T08:28:46;3.60;3.60;1.00
44933;PMS3003;30667;43.614;1.442;2023-03-11T08:31:20;3.80;2.80;0.20
44933;PMS3003;30667;43.614;1.442;2023-03-11T08:33:48;5.20;3.40;1.00
44933;PMS3003;30667;43.614;1.442;2023-03-11T08:36:15;4.00;4.00;1.00
44933;PMS3003;30667;43.614;1.442;2023-03-11T08:38:41;3.00;3.00;1.00
44933;PMS3003;30667;43.614;1.442;2023-03-11T08:41:07;4.00;3.00;0.00
44933;PMS3003;30667;43.614;1.442;2023-03-11T08:43:32;3.00;3.00;1.00
44933;PMS3003;30667;43.614;1.442;2023-03-11T08:46:01;3.00;2.75;1.00
44933;PMS3003;30667;43.614;1.442;2023-03-11T08:48:30;3.80;3.80;1.00
44933;PMS3003;30667;43.614;1.442;2023-03-11T08:50:56;8.00;6.00;1.00
44933;PMS3003;30667;43.614;1.442;2023-03-11T08:53:21;4.00;4.00;1.00
44933;PMS3003;30667;43.614;1.442;2023-03-11T08:55:48;5.60;4.40;2.00
44933;PMS3003;30667;43.614;1.442;2023-03-11T08:58:14;5.00;3.40;1.00
44933;PMS3003;30667;43.614;1.442;2023-03-11T09:00:39;5.00;3.50;0.25
44933;PMS3003;30667;43.614;1.442;2023-03-11T09:03:05;4.00;3.25;2.00
44933;PMS3003;30667;43.614;1.442;2023-03-11T09:05:30;5.25;4.25;1.75
44933;PMS3003;30667;43.614;1.442;2023-03-11T09:07:55;5.00;4.00;1.25
44933;PMS3003;30667;43.614;1.442;2023-03-11T09:10:21;3.75;3.00;1.00
44933;PMS3003;30667;43.614;1.442;2023-03-11T09:12:46;4.00;4.00;1.00
44933;PMS3003;30667;43.614;1.442;2023-03-11T09:15:12;5.00;4.00;2.00
44933;PMS3003;30667;43.614;1.442;2023-03-11T09:17:37;3.50;3.50;1.00
44933;PMS3003;30667;43.614;1.442;2023-03-11T09:20:03;3.25;3.25;1.00
44933;PMS3003;30667;43.614;1.442;2023-03-11T09:22:29;6.40;4.00;1.60
44933;PMS3003;30667;43.614;1.442;2023-03-11T09:24:55;4.00;3.00;1.00
44933;PMS3003;30667;43.614;1.442;2023-03-11T09:27:21;4.60;4.20;1.00
44933;PMS3003;30667;43.614;1.442;2023-03-11T09:29:46;3.00;3.00;1.00
44933;PMS3003;30667;43.614;1.442;2023-03-11T09:32:12;4.00;2.50;0.00
44933;PMS3003;30667;43.614;1.442;2023-03-11T09:34:38;4.40;4.40;2.00
44933;PMS3003;30667;43.614;1.442;2023-03-11T09:37:03;4.00;3.25;1.00
44933;PMS3003;30667;43.614;1.442;2023-03-11T09:39:28;3.00;3.00;1.00
44933;PMS3003;30667;43.614;1.442;2023-03-11T09:44:28;3.60;3.40;1.00
44933;PMS3003;30667;43.614;1.442;2023-03-11T09:54:55;4.25;3.00;0.75
44933;PMS3003;30667;43.614;1.442;2023-03-11T09:57:31;3.60;3.00;0.60
44933;PMS3003;30667;43.614;1.442;2023-03-11T09:59:59;3.60;3.40;1.00
44933;PMS3003;30667;43.614;1.442;2023-03-11T10:02:28;4.00;2.80;0.80
44933;PMS3003;30667;43.614;1.442;2023-03-11T10:05:11;3.00;3.00;1.00
44933;PMS3003;30667;43.614;1.442;2023-03-11T10:07:44;2.60;2.60;0.00
44933;PMS3003;30667;43.614;1.442;2023-03-11T10:10:17;3.80;3.80;1.00
44933;PMS3003;30667;43.614;1.442;2023-03-11T10:23:12;2.00;2.00;0.00
44933;PMS3003;30667;43.614;1.442;2023-03-11T10:26:02;2.20;2.20;0.60
44933;PMS3003;30667;43.614;1.442;2023-03-11T10:31:33;2.00;2.00;0.00
44933;PMS3003;30667;43.614;1.442;2023-03-11T10:39:39;0.80;0.80;0.00
44933;PMS3003;30667;43.614;1.442;2023-03-11T10:42:08;0.00;0.00;0.00
44933;PMS3003;30667;43.614;1.442;2023-03-11T10:44:38;1.00;1.00;0.00
44933;PMS3003;30667;43.614;1.442;2023-03-11T10:47:09;0.00;0.00;0.00
44933;PMS3003;30667;43.614;1.442;2023-03-11T10:49:42;0.20;0.20;0.00
44933;PMS3003;30667;43.614;1.442;2023-03-11T10:52:07;1.00;1.00;0.00
44933;PMS3003;30667;43.614;1.442;2023-03-11T10:54:34;1.00;1.00;0.00
44933;PMS3003;30667;43.614;1.442;2023-03-11T10:57:04;1.00;1.00;0.00
44933;PMS3003;30667;43.614;1.442;2023-03-11T10:59:47;1.00;1.00;0.00
44933;PMS3003;30667;43.614;1.442;2023-03-11T11:02:26;1.00;1.00;0.00
44933;PMS3003;30667;43.614;1.442;2023-03-11T11:07:44;0.00;0.00;0.00
44933;PMS3003;30667;43.614;1.442;2023-03-11T11:12:58;1.00;1.00;0.00
44933;PMS3003;30667;43.614;1.442;2023-03-11T11:18:41;1.60;1.00;0.00
44933;PMS3003;30667;43.614;1.442;2023-03-11T11:20:59;0.20;0.20;0.00
44933;PMS3003;30667;43.614;1.442;2023-03-11T11:23:49;1.00;1.00;0.00
44933;PMS3003;30667;43.614;1.442;2023-03-11T11:26:25;1.00;1.00;0.00
44933;PMS3003;30667;43.614;1.442;2023-03-11T11:31:35;1.00;0.20;0.00
44933;PMS3003;30667;43.614;1.442;2023-03-11T11:34:01;0.80;0.80;0.00
44933;PMS3003;30667;43.614;1.442;2023-03-11T11:36:28;0.25;0.25;0.00
44933;PMS3003;30667;43.614;1.442;2023-03-11T11:38:56;2.00;1.00;0.00
44933;PMS3003;30667;43.614;1.442;2023-03-11T11:41:25;0.00;0.00;0.00
44933;PMS3003;30667;43.614;1.442;2023-03-11T11:43:54;1.00;1.00;0.00
44933;PMS3003;30667;43.614;1.442;2023-03-11T11:52:05;0.00;0.00;0.00
44933;PMS3003;30667;43.614;1.442;2023-03-11T11:57:23;1.00;1.00;0.00
44933;PMS3003;30667;43.614;1.442;2023-03-11T11:59:48;1.00;1.00;0.00
44933;PMS3003;30667;43.614;1.442;2023-03-11T12:04:51;1.00;1.00;0.00
44933;PMS3003;30667;43.614;1.442;2023-03-11T12:15:49;2.00;1.00;0.00
44933;PMS3003;30667;43.614;1.442;2023-03-11T12:18:29;2.80;2.00;0.00
44933;PMS3003;30667;43.614;1.442;2023-03-11T12:20:56;0.80;0.80;0.00
44933;PMS3003;30667;43.614;1.442;2023-03-11T12:26:19;1.80;1.00;0.00
44933;PMS3003;30667;43.614;1.442;2023-03-11T12:28:53;2.80;1.20;0.00
44933;PMS3003;30667;43.614;1.442;2023-03-11T12:31:22;1.00;1.00;0.00
44933;PMS3003;30667;43.614;1.442;2023-03-11T12:33:55;1.60;1.00;0.00
44933;PMS3003;30667;43.614;1.442;2023-03-11T12:36:31;1.00;1.00;0.00
44933;PMS3003;30667;43.614;1.442;2023-03-11T12:38:59;2.00;2.00;0.00
44933;PMS3003;30667;43.614;1.442;2023-03-11T12:41:30;2.20;1.20;0.00
44933;PMS3003;30667;43.614;1.442;2023-03-11T12:44:22;1.60;1.00;0.00
44933;PMS3003;30667;43.614;1.442;2023-03-11T12:49:21;2.50;1.75;0.00
44933;PMS3003;30667;43.614;1.442;2023-03-11T12:54:36;1.00;1.00;0.00
44933;PMS3003;30667;43.614;1.442;2023-03-11T13:10:41;0.00;0.00;0.00
44933;PMS3003;30667;43.614;1.442;2023-03-11T13:13:21;1.00;1.00;0.00
44933;PMS3003;30667;43.614;1.442;2023-03-11T13:15:47;0.40;0.40;0.00
44933;PMS3003;30667;43.614;1.442;2023-03-11T13:20:49;0.00;0.00;0.00
44933;PMS3003;30667;43.614;1.442;2023-03-11T13:23:24;1.00;1.00;0.00
44933;PMS3003;30667;43.614;1.442;2023-03-11T13:31:34;0.80;0.80;0.00
44933;PMS3003;30667;43.614;1.442;2023-03-11T13:42:42;1.00;1.00;0.00
44933;PMS3003;30667;43.614;1.442;2023-03-11T13:45:18;1.00;1.00;0.00
44933;PMS3003;30667;43.614;1.442;2023-03-11T13:47:51;1.20;1.00;0.00
44933;PMS3003;30667;43.614;1.442;2023-03-11T13:50:23;2.00;1.00;0.00
44933;PMS3003;30667;43.614;1.442;2023-03-11T13:52:53;1.20;1.20;0.00
44933;PMS3003;30667;43.614;1.442;2023-03-11T13:55:26;1.00;1.00;0.00
44933;PMS3003;30667;43.614;1.442;2023-03-11T13:57:53;1.00;1.00;0.00
44933;PMS3003;30667;43.614;1.442;2023-03-11T14:00:23;1.00;1.00;0.00
44933;PMS3003;30667;43.614;1.442;2023-03-11T14:02:56;0.40;0.00;0.00
44933;PMS3003;30667;43.614;1.442;2023-03-11T14:05:26;1.00;1.00;0.00
44933;PMS3003;30667;43.614;1.442;2023-03-11T14:08:01;0.20;0.00;0.00
44933;PMS3003;30667;43.614;1.442;2023-03-11T14:10:37;1.00;1.00;0.00
44933;PMS3003;30667;43.614;1.442;2023-03-11T14:13:05;1.00;1.00;0.00
44933;PMS3003;30667;43.614;1.442;2023-03-11T14:15:41;0.80;0.60;0.00
44933;PMS3003;30667;43.614;1.442;2023-03-11T14:20:56;1.40;1.00;0.00
44933;PMS3003;30667;43.614;1.442;2023-03-11T14:23:23;0.60;0.60;0.00
44933;PMS3003;30667;43.614;1.442;2023-03-11T14:25:56;2.00;1.00;0.00
44933;PMS3003;30667;43.614;1.442;2023-03-11T14:28:23;1.00;1.00;0.00
44933;PMS3003;30667;43.614;1.442;2023-03-11T14:30:56;1.00;1.00;0.00
44933;PMS3003;30667;43.614;1.442;2023-03-11T14:33:25;1.00;1.00;0.00
44933;PMS3003;30667;43.614;1.442;2023-03-11T14:35:51;1.80;1.00;0.00
44933;PMS3003;30667;43.614;1.442;2023-03-11T14:38:19;1.00;1.00;0.00
44933;PMS3003;30667;43.614;1.442;2023-03-11T14:40:56;1.00;1.00;0.00
44933;PMS3003;30667;43.614;1.442;2023-03-11T14:43:24;1.00;1.00;0.00
44933;PMS3003;30667;43.614;1.442;2023-03-11T14:45:51;1.00;1.00;0.00
44933;PMS3003;30667;43.614;1.442;2023-03-11T14:48:21;1.00;1.00;0.00
44933;PMS3003;30667;43.614;1.442;2023-03-11T14:50:48;1.20;1.00;0.00
44933;PMS3003;30667;43.614;1.442;2023-03-11T14:53:15;2.00;1.00;0.00
44933;PMS3003;30667;43.614;1.442;2023-03-11T14:55:49;1.00;1.00;0.00
44933;PMS3003;30667;43.614;1.442;2023-03-11T15:06:18;1.00;1.00;0.00
44933;PMS3003;30667;43.614;1.442;2023-03-11T15:08:47;1.00;1.00;0.00
44933;PMS3003;30667;43.614;1.442;2023-03-11T15:13:46;1.60;1.60;0.00
44933;PMS3003;30667;43.614;1.442;2023-03-11T15:16:34;1.60;1.00;0.00
44933;PMS3003;30667;43.614;1.442;2023-03-11T15:19:19;1.00;1.00;0.00
44933;PMS3003;30667;43.614;1.442;2023-03-11T15:21:47;1.60;1.00;0.00
44933;PMS3003;30667;43.614;1.442;2023-03-11T15:24:21;2.00;1.00;0.00
44933;PMS3003;30667;43.614;1.442;2023-03-11T15:27:02;1.20;1.00;0.00
44933;PMS3003;30667;43.614;1.442;2023-03-11T15:29:31;0.80;0.80;0.00
44933;PMS3003;30667;43.614;1.442;2023-03-11T15:31:58;1.00;1.00;0.00
44933;PMS3003;30667;43.614;1.442;2023-03-11T15:39:18;1.00;1.00;0.00
44933;PMS3003;30667;43.614;1.442;2023-03-11T15:42:28;1.00;1.00;0.00
44933;PMS3003;30667;43.614;1.442;2023-03-11T15:44:42;1.00;1.00;0.00
44933;PMS3003;30667;43.614;1.442;2023-03-11T15:47:21;1.00;1.00;0.00
44933;PMS3003;30667;43.614;1.442;2023-03-11T15:49:47;0.00;0.00;0.00
44933;PMS3003;30667;43.614;1.442;2023-03-11T15:52:14;1.40;1.40;0.00
44933;PMS3003;30667;43.614;1.442;2023-03-11T15:54:40;1.00;1.00;0.00
44933;PMS3003;30667;43.614;1.442;2023-03-11T15:57:07;1.25;1.00;0.00
44933;PMS3003;30667;43.614;1.442;2023-03-11T15:59:34;1.00;1.00;0.00
44933;PMS3003;30667;43.614;1.442;2023-03-11T16:02:01;1.00;1.00;0.00
44933;PMS3003;30667;43.614;1.442;2023-03-11T16:04:27;0.20;0.20;0.00
44933;PMS3003;30667;43.614;1.442;2023-03-11T16:06:52;0.00;0.00;0.00
44933;PMS3003;30667;43.614;1.442;2023-03-11T16:09:18;1.00;1.00;0.00
44933;PMS3003;30667;43.614;1.442;2023-03-11T16:11:44;1.20;1.00;0.00
44933;PMS3003;30667;43.614;1.442;2023-03-11T16:14:17;1.00;1.00;0.00
44933;PMS3003;30667;43.614;1.442;2023-03-11T16:16:44;0.60;0.60;0.00
44933;PMS3003;30667;43.614;1.442;2023-03-11T16:19:11;1.00;1.00;0.00
44933;PMS3003;30667;43.614;1.442;2023-03-11T16:21:41;0.00;0.00;0.00
44933;PMS3003;30667;43.614;1.442;2023-03-11T16:24:20;0.60;0.00;0.00
44933;PMS3003;30667;43.614;1.442;2023-03-11T16:26:48;1.00;1.00;0.00
44933;PMS3003;30667;43.614;1.442;2023-03-11T16:29:16;0.20;0.00;0.00